X  Cerrar Datos meteorológicos de aviación METAR     LIML Milano Linate Airport
Temperatura
21°C Temperatura
13°C Punto de rocío
60% Humedad



Viento
8 KM/H
5 MPH
2 M/S
4 NUDO



30°
NNE
Condiciones actuales

Claro Claro
Presión 1012.92 (hPa) - 29.91 (inHg)
Visibilidad 6.2 (milla) - 10 (km)
Aeropuerto
Código de aeropuerto LIML

localidad: Milano Linate Airport
Distancia: 100 (km)

Metar:
LIML 050620Z 03004KT CAVOK 21/13 Q1013 NOSIG

Hora: 05-08-2020 08:20 CEST